Time;durP1;ratioP1;P1;durP2;ratioP2;P2;SDS_P1;SDS_P2;PMS_P1;PMS_P2;Temp;Humidity;BMP_temperature;BMP_pressure;BME280_temperature;BME280_humidity;BME280_pressure;Samples;Min_cycle;Max_cycle;Signal;HPM_P1;HPM_P2
2021/07/16 00:04:45;;;;;;;6.37;3.23;;;;;;;23.74;74.15;94426.31;10532520;28;20023;-78
2021/07/16 00:09:45;;;;;;;5.50;3.10;;;;;;;23.77;73.73;94425.56;10532751;28;20285;-78
2021/07/16 00:14:46;;;;;;;6.80;3.43;;;;;;;23.62;76.49;94416.28;10533222;28;20016;-78
2021/07/16 00:19:46;;;;;;;8.23;3.73;;;;;;;23.46;78.01;94416.41;10532481;28;20634;-78
2021/07/16 00:24:46;;;;;;;5.53;3.40;;;;;;;23.36;75.87;94395.84;10551566;28;20044;-78
2021/07/16 00:29:47;;;;;;;9.00;3.47;;;;;;;23.36;75.15;94393.09;10574910;28;20096;-78
2021/07/16 00:34:47;;;;;;;9.10;2.97;;;;;;;23.35;75.26;94380.53;10574096;28;20020;-78
2021/07/16 00:39:47;;;;;;;4.53;3.33;;;;;;;23.28;76.13;94380.41;10571490;27;20090;-78
2021/07/16 00:44:48;;;;;;;6.00;3.00;;;;;;;23.14;76.47;94380.94;10571186;28;20045;-78
2021/07/16 00:49:48;;;;;;;4.10;2.70;;;;;;;23.18;76.50;94387.28;10572015;28;20035;-78
2021/07/16 00:54:49;;;;;;;6.75;2.88;;;;;;;23.07;76.30;94408.97;10572914;28;20111;-78
2021/07/16 00:59:50;;;;;;;5.55;3.17;;;;;;;22.94;76.98;94396.53;10574059;28;20463;-78
2021/07/16 01:04:52;;;;;;;6.13;3.05;;;;;;;22.97;76.75;94395.81;10571670;28;20032;-78
2021/07/16 01:09:52;;;;;;;5.20;3.20;;;;;;;22.96;76.66;94392.28;10553919;28;20024;-78
2021/07/16 01:14:53;;;;;;;6.53;3.03;;;;;;;22.81;77.27;94404.91;10570511;28;20020;-78
2021/07/16 01:20:04;;;;;;;14.32;3.08;;;;;;;22.79;77.22;94399.00;10572826;28;20518;-78
2021/07/16 01:25:16;;;;;;;6.57;2.92;;;;;;;22.64;79.37;94399.84;10589542;27;20107;-78
2021/07/16 01:30:20;;;;;;;9.60;3.20;;;;;;;22.43;82.96;94394.72;10573944;28;20059;-78
2021/07/16 01:35:22;;;;;;;4.28;2.50;;;;;;;22.12;85.97;94399.06;10556316;28;20028;-78
2021/07/16 01:40:24;;;;;;;9.48;2.88;;;;;;;21.97;86.56;94389.72;10570257;28;20020;-78
2021/07/16 01:45:33;;;;;;;5.10;3.13;;;;;;;22.05;83.58;94376.97;10570307;28;20058;-77
2021/07/16 01:50:35;;;;;;;5.43;2.42;;;;;;;22.13;81.19;94376.00;10570652;28;20051;-78
2021/07/16 01:55:39;;;;;;;5.18;2.92;;;;;;;22.18;78.98;94375.75;10569196;28;20102;-77
2021/07/16 02:00:46;;;;;;;5.75;3.13;;;;;;;22.19;79.00;94372.63;10571484;28;20028;-78
2021/07/16 02:05:47;;;;;;;7.25;2.90;;;;;;;22.30;75.37;94372.88;10571873;28;20053;-78
2021/07/16 02:10:52;;;;;;;3.65;2.60;;;;;;;22.36;74.07;94368.75;10571950;28;20122;-78
2021/07/16 02:15:54;;;;;;;7.30;2.50;;;;;;;22.35;73.05;94364.44;10555408;28;20031;-80
2021/07/16 02:20:54;;;;;;;3.97;2.53;;;;;;;22.24;75.13;94373.53;10573129;28;20039;-81
2021/07/16 02:25:55;;;;;;;7.22;2.70;;;;;;;22.19;77.86;94363.66;10541447;28;20054;-77
2021/07/16 02:30:57;;;;;;;8.15;2.42;;;;;;;22.10;79.60;94352.88;10527794;28;20119;-77
2021/07/16 02:35:58;;;;;;;3.97;2.85;;;;;;;22.01;82.22;94358.53;10528953;28;20586;-78
2021/07/16 02:40:58;;;;;;;5.38;2.92;;;;;;;21.68;85.77;94351.53;10526172;28;20111;-77
2021/07/16 02:45:59;;;;;;;5.97;2.70;;;;;;;21.56;86.79;94364.47;10524841;28;20511;-78
2021/07/16 02:51:00;;;;;;;3.92;2.80;;;;;;;21.55;86.82;94365.66;10528279;28;20081;-78
2021/07/16 02:56:00;;;;;;;8.60;2.30;;;;;;;21.43;87.60;94370.00;10530030;28;20032;-78
2021/07/16 03:01:00;;;;;;;7.40;2.90;;;;;;;21.53;88.92;94370.66;10528738;28;20438;-78
2021/07/16 03:06:01;;;;;;;10.67;2.90;;;;;;;21.42;89.63;94370.34;10532542;28;20476;-78
2021/07/16 03:11:01;;;;;;;8.67;2.83;;;;;;;21.38;90.20;94372.19;10533529;28;20056;-78
2021/07/16 03:16:03;;;;;;;6.35;3.38;;;;;;;21.34;92.06;94372.91;10530910;28;20879;-77
2021/07/16 03:21:03;;;;;;;4.93;2.40;;;;;;;21.29;93.26;94381.38;10516407;28;20047;-77
2021/07/16 03:26:04;;;;;;;11.13;3.33;;;;;;;21.29;94.14;94386.03;10532849;28;20059;-77
2021/07/16 03:31:04;;;;;;;9.07;4.17;;;;;;;21.31;94.40;94389.22;10535865;28;20472;-79
2021/07/16 03:36:08;;;;;;;6.63;2.87;;;;;;;21.34;95.70;94385.78;10535876;28;20462;-79
2021/07/16 03:41:09;;;;;;;3.42;2.80;;;;;;;21.24;95.56;94375.34;10536050;28;20346;-79
2021/07/16 03:46:10;;;;;;;5.30;2.72;;;;;;;21.29;95.93;94383.31;10518532;28;20028;-79
2021/07/16 03:51:10;;;;;;;8.70;3.53;;;;;;;21.33;96.42;94387.72;10531542;28;20020;-79
2021/07/16 03:56:11;;;;;;;8.55;3.67;;;;;;;21.41;100.00;94391.44;10527305;28;20028;-79
2021/07/16 04:01:15;;;;;;;17.20;4.13;;;;;;;21.39;100.00;94387.47;10528578;28;20046;-77
2021/07/16 04:06:15;;;;;;;13.50;4.05;;;;;;;21.53;100.00;94381.59;10528677;28;20073;-77
2021/07/16 04:11:16;;;;;;;11.23;3.47;;;;;;;21.64;100.00;94382.66;10531612;28;20032;-78
2021/07/16 04:16:16;;;;;;;6.15;3.78;;;;;;;21.71;100.00;94380.09;10530393;28;20064;-78
2021/07/16 04:21:16;;;;;;;16.93;4.63;;;;;;;21.84;100.00;94383.56;10513266;28;20059;-78
2021/07/16 04:26:17;;;;;;;8.27;3.47;;;;;;;22.02;100.00;94382.03;10562734;28;20058;-78
2021/07/16 04:31:17;;;;;;;3.80;2.87;;;;;;;22.19;100.00;94391.03;10572308;28;20071;-78
2021/07/16 04:36:17;;;;;;;12.10;3.27;;;;;;;22.46;95.75;94391.25;10572199;28;20060;-78
2021/07/16 04:41:19;;;;;;;5.13;3.10;;;;;;;22.79;93.25;94382.56;10572173;28;20042;-78
2021/07/16 04:46:19;;;;;;;14.55;3.78;;;;;;;22.99;94.34;94385.31;10572191;28;20418;-78
2021/07/16 04:51:26;;;;;;;8.27;4.20;;;;;;;23.23;92.79;94383.44;10569094;28;20038;-78
2021/07/16 04:56:27;;;;;;;6.28;3.72;;;;;;;23.63;91.54;94383.00;10569267;28;20118;-78
2021/07/16 05:01:28;;;;;;;8.70;4.57;;;;;;;23.76;89.54;94385.56;10565483;28;20826;-78
2021/07/16 05:06:28;;;;;;;6.07;3.97;;;;;;;24.38;84.09;94383.41;10524536;28;20064;-78
2021/07/16 05:11:30;;;;;;;16.50;3.97;;;;;;;24.64;84.61;94376.34;10507634;28;20515;-79
2021/07/16 05:16:31;;;;;;;12.02;5.38;;;;;;;24.56;87.23;94378.19;10529391;28;20135;-78
2021/07/16 05:21:33;;;;;;;6.60;3.30;;;;;;;24.46;90.54;94378.03;10527396;28;20477;-77
2021/07/16 05:26:33;;;;;;;7.32;4.28;;;;;;;24.96;90.13;94362.22;10580706;27;20051;-77
2021/07/16 05:31:33;;;;;;;6.17;3.73;;;;;;;24.98;88.45;94359.06;10580041;27;20023;-77
2021/07/16 05:36:34;;;;;;;8.17;3.47;;;;;;;25.24;87.09;94344.44;10588853;27;20272;-77
2021/07/16 05:41:34;;;;;;;6.97;3.77;;;;;;;25.64;85.53;94342.13;10610307;27;20114;-77
2021/07/16 05:46:35;;;;;;;6.85;3.75;;;;;;;26.71;80.23;94360.59;10611316;27;20027;-77
2021/07/16 05:51:35;;;;;;;9.90;4.47;;;;;;;27.53;75.96;94356.56;10580453;27;20028;-77
2021/07/16 05:56:40;;;;;;;12.23;4.20;;;;;;;28.09;69.13;94352.31;10564907;28;20641;-77
2021/07/16 06:01:40;;;;;;;7.38;3.65;;;;;;;28.97;58.09;94354.50;10560723;27;20918;-77
2021/07/16 06:06:40;;;;;;;12.40;4.20;;;;;;;29.26;52.72;94359.13;10585430;27;20086;-77
2021/07/16 06:11:41;;;;;;;8.53;3.50;;;;;;;30.04;50.27;94348.75;10577198;28;20027;-77
2021/07/16 06:16:41;;;;;;;11.17;3.57;;;;;;;30.40;49.30;94347.66;10568169;28;20712;-77
2021/07/16 06:21:41;;;;;;;9.60;2.93;;;;;;;31.23;47.36;94349.53;10592050;28;20061;-76
2021/07/16 06:26:42;;;;;;;6.13;2.80;;;;;;;31.21;46.30;94341.63;10578319;28;20060;-77
2021/07/16 06:31:42;;;;;;;8.02;2.78;;;;;;;31.34;46.02;94344.63;10560917;28;20089;-77
2021/07/16 06:36:43;;;;;;;7.60;2.50;;;;;;;32.16;43.52;94314.84;10570925;28;20428;-78
2021/07/16 06:41:44;;;;;;;8.27;2.70;;;;;;;32.69;43.48;94311.53;10577216;28;20486;-78
2021/07/16 06:46:44;;;;;;;12.23;3.58;;;;;;;32.78;42.23;94306.19;10579385;27;20138;-78
2021/07/16 06:51:44;;;;;;;11.15;3.38;;;;;;;32.90;41.16;94301.97;10582570;27;20151;-78
2021/07/16 06:56:45;;;;;;;4.73;2.30;;;;;;;32.70;39.84;94302.00;10576904;28;20028;-78
2021/07/16 07:01:46;;;;;;;8.77;2.60;;;;;;;32.81;38.94;94305.34;10564989;27;20019;-78
2021/07/16 07:06:46;;;;;;;10.88;2.72;;;;;;;32.21;39.42;94299.69;10593081;27;20284;-77
2021/07/16 07:11:46;;;;;;;4.30;2.50;;;;;;;33.25;38.60;94294.09;10598539;27;20046;-78
2021/07/16 07:16:47;;;;;;;7.87;2.70;;;;;;;33.01;38.02;94298.97;10615267;27;20378;-77
2021/07/16 07:21:47;;;;;;;6.53;2.77;;;;;;;33.46;39.61;94284.47;10580247;27;20028;-77
2021/07/16 07:26:47;;;;;;;5.03;2.60;;;;;;;34.61;37.54;94280.06;10586191;27;20063;-78
2021/07/16 07:31:48;;;;;;;6.17;2.93;;;;;;;35.54;35.99;94273.81;10556629;28;20023;-78
2021/07/16 07:36:49;;;;;;;9.45;2.70;;;;;;;36.11;34.92;94279.59;10574754;28;20045;-78
2021/07/16 07:41:50;;;;;;;6.70;2.75;;;;;;;35.35;35.50;94270.03;10555610;28;20024;-75
2021/07/16 07:46:50;;;;;;;10.33;3.17;;;;;;;36.67;34.33;94275.28;10573988;28;20462;-75
2021/07/16 07:51:51;;;;;;;11.65;3.03;;;;;;;37.79;32.32;94273.97;10573307;28;20486;-76
2021/07/16 07:56:51;;;;;;;6.70;2.47;;;;;;;38.86;31.52;94262.22;10573216;28;20520;-76
2021/07/16 08:01:51;;;;;;;7.90;3.70;;;;;;;38.30;31.54;94262.22;10554003;28;20075;-78
2021/07/16 08:06:52;;;;;;;8.60;3.50;;;;;;;39.26;29.57;94257.66;10573545;28;20120;-76
2021/07/16 08:11:52;;;;;;;18.67;3.33;;;;;;;37.79;31.34;94246.69;10574107;28;20023;-76
2021/07/16 08:16:52;;;;;;;8.07;3.10;;;;;;;38.29;30.69;94252.25;10573391;28;20031;-76
2021/07/16 08:21:54;;;;;;;3.80;2.23;;;;;;;39.21;30.29;94247.81;10574282;28;20038;-77
2021/07/16 08:26:54;;;;;;;4.72;2.83;;;;;;;37.81;30.91;94259.47;10575049;28;20328;-76
2021/07/16 08:31:54;;;;;;;7.30;3.33;;;;;;;38.58;29.91;94245.38;10573039;28;20035;-76
2021/07/16 08:36:56;;;;;;;4.93;3.20;;;;;;;38.43;29.69;94244.44;10570880;28;20031;-77
2021/07/16 08:41:57;;;;;;;9.00;3.60;;;;;;;36.30;33.04;94244.19;10570290;28;20023;-77
2021/07/16 08:46:58;;;;;;;8.68;3.97;;;;;;;36.26;33.47;94247.09;10573241;27;20042;-77
2021/07/16 08:51:59;;;;;;;5.90;3.42;;;;;;;38.22;30.99;94234.94;10572947;28;20452;-77
2021/07/16 08:57:00;;;;;;;7.25;3.30;;;;;;;39.66;29.19;94225.66;10554091;28;20026;-77
2021/07/16 09:02:02;;;;;;;12.20;3.77;;;;;;;37.84;30.85;94228.44;10571884;28;20489;-77
2021/07/16 09:07:02;;;;;;;9.25;2.83;;;;;;;39.44;30.31;94231.50;10570020;27;20060;-77
2021/07/16 09:12:11;;;;;;;9.18;3.28;;;;;;;38.42;29.95;94220.44;10593957;27;20106;-77
2021/07/16 09:17:15;;;;;;;5.88;3.50;;;;;;;39.24;30.26;94224.41;10571828;28;20035;-76
2021/07/16 09:22:19;;;;;;;10.88;3.53;;;;;;;39.30;29.58;94216.09;10570595;28;20019;-77
2021/07/16 09:27:41;;;;;;;6.03;3.67;;;;;;;39.48;29.50;94218.06;10570724;28;20077;-77
2021/07/16 09:32:45;;;;;;;10.25;3.58;;;;;;;38.39;30.73;94215.75;10584987;28;20091;-77
2021/07/16 09:37:50;;;;;;;10.30;4.28;;;;;;;38.45;30.50;94211.09;10566285;27;20031;-77
2021/07/16 09:42:57;;;;;;;9.13;3.57;;;;;;;39.31;30.09;94203.59;10580436;27;20505;-77
2021/07/16 09:48:16;;;;;;;8.38;3.75;;;;;;;39.37;29.88;94206.53;10610714;27;20277;-77
2021/07/16 09:53:30;;;;;;;11.40;3.67;;;;;;;38.07;31.11;94215.88;10611757;27;20030;-77
2021/07/16 09:58:30;;;;;;;13.63;3.67;;;;;;;39.97;29.59;94208.41;10536999;28;20522;-76
2021/07/16 10:03:32;;;;;;;6.43;2.97;;;;;;;39.58;29.16;94205.50;10566964;28;20034;-77
2021/07/16 10:08:33;;;;;;;6.20;3.83;;;;;;;39.57;30.27;94192.69;10567690;28;20024;-76
2021/07/16 10:13:36;;;;;;;5.00;3.50;;;;;;;40.24;28.59;94194.66;10570219;28;20221;-77
2021/07/16 10:18:39;;;;;;;7.53;3.28;;;;;;;41.02;27.91;94188.19;10575543;28;20478;-77
2021/07/16 10:23:40;;;;;;;7.75;3.17;;;;;;;40.70;28.23;94176.59;10575130;28;20054;-77
2021/07/16 10:28:42;;;;;;;7.65;3.20;;;;;;;40.73;27.47;94182.03;10582588;27;20042;-77
2021/07/16 10:33:43;;;;;;;8.60;3.45;;;;;;;41.17;26.66;94180.50;10586249;27;20023;-77
2021/07/16 10:38:50;;;;;;;12.45;3.58;;;;;;;40.86;27.23;94169.69;10586756;27;20033;-78
2021/07/16 10:43:50;;;;;;;9.73;4.00;;;;;;;40.99;26.54;94156.88;10609657;27;20039;-78
2021/07/16 10:48:50;;;;;;;10.10;3.50;;;;;;;39.44;28.94;94164.03;10574999;27;20206;-77
2021/07/16 10:53:51;;;;;;;12.33;4.00;;;;;;;39.66;28.27;94166.59;10575360;28;20032;-77
2021/07/16 10:58:52;;;;;;;6.75;3.63;;;;;;;40.78;27.04;94160.88;10576297;28;20035;-77
2021/07/16 11:03:52;;;;;;;13.98;3.83;;;;;;;41.11;26.83;94145.78;10609884;27;20019;-77
2021/07/16 11:08:57;;;;;;;9.52;3.78;;;;;;;38.31;29.53;94156.34;10604435;27;20087;-77
2021/07/16 11:13:59;;;;;;;14.40;4.78;;;;;;;35.15;34.12;94150.09;10575956;28;20028;-77
2021/07/16 11:19:09;;;;;;;13.45;4.63;;;;;;;33.21;37.45;94151.34;10600134;27;20114;-76
2021/07/16 11:24:18;;;;;;;11.40;5.00;;;;;;;32.62;38.74;94139.16;10595169;27;20107;-76
2021/07/16 11:29:21;;;;;;;10.27;4.88;;;;;;;32.27;39.97;94135.91;10617688;27;20031;-76
2021/07/16 11:34:21;;;;;;;15.52;5.43;;;;;;;31.94;39.79;94136.53;10615528;27;20031;-77
2021/07/16 11:39:35;;;;;;;7.03;5.00;;;;;;;32.01;41.50;94127.25;10579872;27;20036;-77
2021/07/16 11:44:41;;;;;;;12.27;5.82;;;;;;;31.97;42.52;94135.69;10603074;27;20027;-77
2021/07/16 11:49:44;;;;;;;11.32;5.18;;;;;;;31.45;42.30;94131.41;10560158;28;20764;-78
2021/07/16 11:54:45;;;;;;;8.57;5.03;;;;;;;31.41;42.35;94122.38;10574280;28;20397;-77
2021/07/16 11:59:51;;;;;;;12.90;4.90;;;;;;;31.67;43.40;94111.63;10575875;28;20020;-77
2021/07/16 12:04:58;;;;;;;8.32;4.80;;;;;;;32.04;41.66;94098.63;10592855;27;20061;-77
2021/07/16 12:09:58;;;;;;;;;;;;;;;32.03;42.30;94105.38;10530076;28;20028;-74
2021/07/16 12:15:02;;;;;;;6.65;4.75;;;;;;;31.70;42.47;94094.09;10529330;28;19916;-78
2021/07/16 12:20:06;;;;;;;10.68;4.68;;;;;;;31.43;42.39;94102.53;10560157;28;20451;-78
2021/07/16 12:25:07;;;;;;;9.90;4.80;;;;;;;31.38;43.73;94089.13;10556605;28;20399;-78
2021/07/16 12:30:10;;;;;;;6.85;4.38;;;;;;;31.34;41.86;94089.97;10587817;27;20023;-78
2021/07/16 12:35:15;;;;;;;16.02;6.43;;;;;;;30.83;43.25;94086.44;10621833;27;20481;-78
2021/07/16 12:40:21;;;;;;;8.90;5.20;;;;;;;30.97;43.22;94074.31;10603773;27;20168;-79
2021/07/16 12:45:22;;;;;;;9.15;4.95;;;;;;;30.91;42.90;94076.78;10618498;27;20023;-78
2021/07/16 12:50:24;;;;;;;16.73;4.57;;;;;;;30.80;42.61;94073.41;10571000;28;20047;-77
2021/07/16 12:55:33;;;;;;;12.77;4.63;;;;;;;30.57;42.27;94076.91;10570851;28;20115;-77
2021/07/16 13:00:34;;;;;;;9.75;4.78;;;;;;;30.31;43.66;94062.59;10570533;28;20108;-77
2021/07/16 13:05:34;;;;;;;7.00;3.95;;;;;;;30.51;43.55;94057.19;10571511;28;20049;-78
2021/07/16 13:10:44;;;;;;;9.30;4.97;;;;;;;30.75;42.18;94038.59;10583335;27;20049;-77
2021/07/16 13:15:45;;;;;;;11.60;5.22;;;;;;;30.92;42.12;94035.94;10540586;27;20024;-80
2021/07/16 13:20:45;;;;;;;15.85;4.80;;;;;;;31.01;42.26;94022.31;10616795;27;20539;-78
2021/07/16 13:25:47;;;;;;;14.57;4.50;;;;;;;30.79;42.32;94014.34;10610857;27;20095;-77
2021/07/16 13:30:47;;;;;;;11.45;3.95;;;;;;;30.77;42.44;94008.44;10611151;27;20031;-77
2021/07/16 13:35:48;;;;;;;14.02;4.18;;;;;;;30.56;43.36;94009.59;10590487;27;20035;-78
2021/07/16 13:40:49;;;;;;;9.17;4.93;;;;;;;30.76;43.19;93998.53;10594912;27;20030;-79
2021/07/16 13:45:49;;;;;;;9.48;3.90;;;;;;;30.71;43.12;93989.91;10595470;27;20276;-77
2021/07/16 13:50:50;;;;;;;15.23;4.60;;;;;;;30.98;43.43;93982.31;10570422;28;20109;-78
2021/07/16 13:55:51;;;;;;;9.88;4.15;;;;;;;30.59;42.95;93980.19;10569124;28;20031;-78
2021/07/16 14:00:52;;;;;;;9.75;3.95;;;;;;;30.53;43.52;93990.22;10569494;28;20482;-78
2021/07/16 14:05:52;;;;;;;11.67;3.60;;;;;;;30.21;44.42;93995.03;10569282;28;20461;-77
2021/07/16 14:10:53;;;;;;;11.13;4.30;;;;;;;30.09;45.06;93985.28;10569770;28;20028;-77
2021/07/16 14:15:53;;;;;;;8.00;3.83;;;;;;;30.13;44.14;93985.25;10569074;28;20042;-78
2021/07/16 14:20:53;;;;;;;11.65;4.25;;;;;;;30.28;43.98;93971.94;10569754;28;20032;-80
2021/07/16 14:25:54;;;;;;;8.90;4.17;;;;;;;30.52;43.22;93978.34;10554211;28;20047;-90
2021/07/16 14:30:54;;;;;;;9.93;3.43;;;;;;;30.19;43.63;93982.78;10569033;28;20028;-77
2021/07/16 14:35:55;;;;;;;8.80;3.85;;;;;;;30.34;43.00;93975.81;10581069;28;20031;-76
2021/07/16 14:40:55;;;;;;;10.20;3.97;;;;;;;30.39;42.73;93961.47;10609315;28;20050;-76
2021/07/16 14:45:55;;;;;;;8.20;4.13;;;;;;;30.55;42.41;93954.53;10603382;28;20047;-76
2021/07/16 14:50:56;;;;;;;8.63;3.50;;;;;;;30.62;41.43;93944.09;10566979;28;20031;-78
2021/07/16 14:55:56;;;;;;;7.17;3.80;;;;;;;30.89;40.98;93940.44;10564335;28;20036;-78
2021/07/16 15:00:57;;;;;;;8.73;4.00;;;;;;;30.77;41.68;93936.31;10528563;28;20028;-78
2021/07/16 15:05:57;;;;;;;7.57;3.77;;;;;;;30.73;41.60;93949.47;10593051;27;20656;-78
2021/07/16 15:10:57;;;;;;;15.23;3.67;;;;;;;30.74;40.89;93953.81;10577165;27;20032;-78
2021/07/16 15:15:58;;;;;;;8.03;3.83;;;;;;;30.43;40.20;93973.31;10572238;28;20046;-78
2021/07/16 15:20:58;;;;;;;12.33;3.30;;;;;;;29.93;40.86;93979.56;10567317;27;20054;-77
2021/07/16 15:25:58;;;;;;;7.43;4.33;;;;;;;29.51;41.35;93973.38;10572962;27;20044;-77
2021/07/16 15:30:59;;;;;;;12.90;4.20;;;;;;;29.23;42.27;93978.00;10554234;28;20107;-77
2021/07/16 15:36:04;;;;;;;12.00;3.80;;;;;;;29.17;43.51;93961.06;10572496;28;20485;-77
2021/07/16 15:41:05;;;;;;;12.02;4.07;;;;;;;29.14;43.76;93962.66;10582897;28;20581;-78
2021/07/16 15:46:05;;;;;;;12.40;4.25;;;;;;;29.27;43.62;93967.72;10579185;27;20032;-79
2021/07/16 15:51:06;;;;;;;11.50;4.90;;;;;;;29.22;43.60;93952.31;10556132;28;20059;-79
2021/07/16 15:56:06;;;;;;;8.13;4.18;;;;;;;29.05;44.55;93954.06;10572767;28;20388;-79
2021/07/16 16:01:07;;;;;;;12.25;4.47;;;;;;;28.91;45.18;93957.00;10548967;28;20466;-78
2021/07/16 16:06:09;;;;;;;7.35;4.15;;;;;;;29.04;45.76;93958.06;10536443;28;20024;-78
2021/07/16 16:11:09;;;;;;;7.82;3.60;;;;;;;28.91;46.37;93954.22;10530751;28;20027;-78
2021/07/16 16:16:10;;;;;;;11.13;4.13;;;;;;;28.68;47.88;93961.16;10570861;28;20020;-78
2021/07/16 16:21:10;;;;;;;8.83;4.30;;;;;;;28.68;49.70;93950.09;10569569;28;20320;-78
2021/07/16 16:26:10;;;;;;;14.17;4.73;;;;;;;28.60;51.08;93954.88;10570673;28;21124;-78
2021/07/16 16:31:11;;;;;;;19.43;4.53;;;;;;;28.43;48.62;93955.81;10567125;27;20468;-78
2021/07/16 16:36:12;;;;;;;10.02;4.55;;;;;;;28.41;50.32;93961.75;10571523;27;20105;-80
2021/07/16 16:41:12;;;;;;;10.27;4.57;;;;;;;28.20;54.26;93957.19;10572038;27;20079;-80
2021/07/16 16:46:14;;;;;;;8.02;5.13;;;;;;;28.08;56.47;93968.72;10606909;27;20293;-79
2021/07/16 16:51:14;;;;;;;9.70;4.80;;;;;;;28.02;54.69;93968.34;10563811;27;20053;-80
2021/07/16 16:56:15;;;;;;;11.77;5.55;;;;;;;27.82;54.27;93968.03;10578636;27;20031;-80
2021/07/16 17:01:16;;;;;;;9.87;5.30;;;;;;;27.80;54.72;93976.72;10540090;27;20031;-80
2021/07/16 17:06:16;;;;;;;13.00;5.43;;;;;;;27.78;54.58;93972.78;10604909;27;20064;-80
2021/07/16 17:11:17;;;;;;;12.13;4.60;;;;;;;27.65;55.62;93972.47;10612196;27;20035;-78
2021/07/16 17:16:17;;;;;;;12.82;4.97;;;;;;;27.56;56.45;93972.09;10592638;27;20023;-78
2021/07/16 17:21:17;;;;;;;6.87;4.60;;;;;;;27.47;55.92;93950.47;10612562;27;20035;-78
2021/07/16 17:26:18;;;;;;;12.00;4.73;;;;;;;27.33;55.72;93945.78;10572359;27;20062;-78
2021/07/16 17:31:18;;;;;;;11.40;4.88;;;;;;;27.36;53.90;93945.00;10539475;28;20660;-78
2021/07/16 17:36:19;;;;;;;7.10;4.17;;;;;;;27.25;52.77;93958.00;10527297;28;20032;-78
2021/07/16 17:41:19;;;;;;;7.30;4.60;;;;;;;27.20;51.82;93955.69;10528923;28;20111;-81
2021/07/16 17:46:19;;;;;;;8.40;4.63;;;;;;;27.17;48.36;93964.75;10565248;28;20024;-77
2021/07/16 17:51:20;;;;;;;13.77;5.10;;;;;;;27.11;51.00;93973.44;10567090;28;20555;-78
2021/07/16 17:56:21;;;;;;;10.85;5.05;;;;;;;27.07;50.96;93975.41;10567817;28;20023;-78
2021/07/16 18:01:22;;;;;;;8.17;4.20;;;;;;;27.10;50.48;93980.13;10564043;28;20039;-78
2021/07/16 18:06:22;;;;;;;8.57;4.30;;;;;;;27.16;49.67;93975.00;10566458;28;20265;-78
2021/07/16 18:11:23;;;;;;;13.50;5.07;;;;;;;27.05;49.88;93991.56;10567214;28;20033;-78
2021/07/16 18:16:23;;;;;;;9.53;4.37;;;;;;;26.99;49.71;94006.94;10548805;28;20034;-78
2021/07/16 18:21:24;;;;;;;12.52;4.80;;;;;;;26.98;48.40;94013.66;10566545;28;20036;-78
2021/07/16 18:26:24;;;;;;;12.60;5.43;;;;;;;27.04;47.92;94017.56;10566209;28;20085;-78
2021/07/16 18:31:25;;;;;;;11.65;5.05;;;;;;;27.18;48.57;94014.00;10563681;28;20046;-77
2021/07/16 18:36:25;;;;;;;14.13;4.28;;;;;;;27.20;47.18;94016.38;10570939;28;20371;-77
2021/07/16 18:41:27;;;;;;;7.35;3.92;;;;;;;27.22;46.70;94030.53;10574783;28;20122;-78
2021/07/16 18:46:28;;;;;;;9.05;4.50;;;;;;;27.18;46.91;94036.06;10556689;27;20386;-78
2021/07/16 18:51:29;;;;;;;10.20;4.72;;;;;;;27.12;46.52;94063.25;10595265;27;20036;-77
2021/07/16 18:56:30;;;;;;;8.70;3.85;;;;;;;27.10;47.58;94084.94;10593710;27;20419;-76
2021/07/16 19:01:30;;;;;;;7.65;3.67;;;;;;;27.10;48.15;94086.94;10592935;27;20016;-77
2021/07/16 19:06:31;;;;;;;11.88;4.07;;;;;;;27.06;49.63;94092.44;10576958;27;20421;-77
2021/07/16 19:11:32;;;;;;;9.10;4.32;;;;;;;27.06;50.04;94099.94;10573522;28;20026;-76
2021/07/16 19:16:32;;;;;;;5.68;4.25;;;;;;;26.99;51.02;94095.19;10573797;28;20496;-76
2021/07/16 19:21:33;;;;;;;7.68;3.83;;;;;;;26.67;51.79;94123.50;10591008;27;20058;-76
2021/07/16 19:26:33;;;;;;;16.30;4.70;;;;;;;26.41;54.63;94141.94;10614096;27;20043;-77
2021/07/16 19:31:33;;;;;;;10.63;3.73;;;;;;;26.12;56.53;94154.06;10577087;27;20034;-76
2021/07/16 19:36:34;;;;;;;12.10;4.47;;;;;;;25.90;69.76;94179.50;10555308;28;20123;-76
2021/07/16 19:41:35;;;;;;;18.30;5.53;;;;;;;25.69;78.75;94193.94;10572624;28;20081;-76
2021/07/16 19:46:35;;;;;;;12.10;5.40;;;;;;;24.65;91.54;94199.31;10572393;28;20036;-76
2021/07/16 19:51:35;;;;;;;15.32;6.32;;;;;;;24.47;94.53;94204.59;10555778;28;20031;-76
2021/07/16 19:56:36;;;;;;;13.40;6.43;;;;;;;24.14;98.10;94199.88;10529305;28;20028;-76
2021/07/16 20:01:36;;;;;;;19.60;6.40;;;;;;;23.85;100.00;94203.03;10530104;28;20026;-76
2021/07/16 20:06:37;;;;;;;12.13;5.93;;;;;;;23.49;100.00;94190.75;10529271;28;20128;-75
2021/07/16 20:11:38;;;;;;;12.43;7.00;;;;;;;23.06;100.00;94203.75;10529005;28;20035;-76
2021/07/16 20:16:38;;;;;;;12.15;6.38;;;;;;;22.64;100.00;94195.22;10528980;28;20047;-76
2021/07/16 20:21:41;;;;;;;13.30;6.60;;;;;;;22.51;100.00;94188.31;10529410;28;20471;-76
2021/07/16 20:26:42;;;;;;;13.85;7.22;;;;;;;22.26;100.00;94190.56;10569077;28;20740;-76
2021/07/16 20:31:42;;;;;;;9.02;6.07;;;;;;;22.19;100.00;94193.94;10570340;28;20024;-76
2021/07/16 20:36:43;;;;;;;14.20;6.03;;;;;;;22.28;100.00;94189.03;10570193;28;20452;-76
2021/07/16 20:41:44;;;;;;;9.35;5.63;;;;;;;22.25;100.00;94189.75;10570281;28;20028;-77
2021/07/16 20:46:44;;;;;;;10.43;5.80;;;;;;;22.10;100.00;94194.16;10570281;28;20039;-77
2021/07/16 20:51:45;;;;;;;11.10;6.32;;;;;;;22.31;100.00;94196.53;10569834;28;20031;-77
2021/07/16 20:56:45;;;;;;;11.38;6.15;;;;;;;22.44;100.00;94205.41;10568711;28;20035;-77
2021/07/16 21:01:46;;;;;;;10.37;6.03;;;;;;;22.37;100.00;94208.00;10569701;28;20380;-77
2021/07/16 21:06:46;;;;;;;8.03;6.17;;;;;;;22.39;100.00;94207.66;10569236;28;20273;-77
2021/07/16 21:11:46;;;;;;;13.80;6.53;;;;;;;22.39;100.00;94221.34;10550850;28;20038;-77
2021/07/16 21:16:47;;;;;;;9.63;6.30;;;;;;;22.41;100.00;94221.75;10550667;28;20652;-76
2021/07/16 21:21:47;;;;;;;13.55;6.53;;;;;;;22.36;100.00;94215.41;10569341;28;20575;-76
2021/07/16 21:26:48;;;;;;;14.83;5.57;;;;;;;22.45;100.00;94217.16;10566927;28;20478;-76
2021/07/16 21:31:48;;;;;;;11.20;5.38;;;;;;;22.47;100.00;94218.38;10567733;28;20038;-77
2021/07/16 21:36:48;;;;;;;15.17;4.90;;;;;;;22.60;100.00;94237.38;10584405;27;20355;-77
2021/07/16 21:41:49;;;;;;;9.17;5.60;;;;;;;22.76;100.00;94250.97;10578907;27;20027;-76
2021/07/16 21:46:49;;;;;;;11.93;5.40;;;;;;;22.69;100.00;94255.19;10578447;27;20035;-77
2021/07/16 21:51:51;;;;;;;9.10;5.97;;;;;;;22.60;100.00;94251.09;10568273;28;20382;-79
2021/07/16 21:56:51;;;;;;;7.25;5.35;;;;;;;22.36;100.00;94242.78;10565083;28;20401;-77
2021/07/16 22:01:52;;;;;;;12.93;5.87;;;;;;;22.39;100.00;94241.28;10574720;27;20034;-76
2021/07/16 22:06:52;;;;;;;10.13;6.17;;;;;;;22.32;100.00;94246.59;10563579;27;20024;-76
2021/07/16 22:11:53;;;;;;;16.40;8.57;;;;;;;22.39;100.00;94251.47;10565512;28;20024;-76
2021/07/16 22:16:53;;;;;;;12.03;6.97;;;;;;;22.35;100.00;94240.41;10566360;28;20024;-76
2021/07/16 22:21:53;;;;;;;10.43;6.63;;;;;;;22.40;100.00;94242.88;10566591;28;20107;-76
2021/07/16 22:26:54;;;;;;;11.33;7.13;;;;;;;22.38;100.00;94239.69;10566383;28;20059;-76
2021/07/16 22:31:54;;;;;;;14.70;6.53;;;;;;;22.38;100.00;94238.91;10547357;28;20020;-76
2021/07/16 22:36:54;;;;;;;6.97;5.47;;;;;;;22.07;100.00;94249.59;10565254;28;20027;-76
2021/07/16 22:41:55;;;;;;;8.30;5.87;;;;;;;22.17;100.00;94246.31;10566355;28;20030;-76
2021/07/16 22:46:55;;;;;;;12.27;6.97;;;;;;;21.71;100.00;94242.56;10565103;28;20479;-76
2021/07/16 22:51:56;;;;;;;15.77;6.93;;;;;;;21.49;100.00;94239.31;10565535;28;20023;-77
2021/07/16 22:56:56;;;;;;;11.83;6.27;;;;;;;21.25;100.00;94252.03;10565622;28;20086;-76
2021/07/16 23:01:57;;;;;;;10.50;7.00;;;;;;;21.09;100.00;94243.81;10564813;28;20088;-76
2021/07/16 23:06:57;;;;;;;18.52;6.43;;;;;;;21.07;100.00;94245.31;10565393;28;20265;-76
2021/07/16 23:11:57;;;;;;;9.90;6.60;;;;;;;21.08;100.00;94241.44;10564716;28;20027;-76
2021/07/16 23:16:58;;;;;;;10.47;6.40;;;;;;;20.97;100.00;94241.16;10565236;28;20031;-76